Time;durP1;ratioP1;P1;durP2;ratioP2;P2;SDS_P1;SDS_P2;PMS_P1;PMS_P2;Temp;Humidity;BMP_temperature;BMP_pressure;BME280_temperature;BME280_humidity;BME280_pressure;Samples;Min_cycle;Max_cycle;Signal;HPM_P1;HPM_P2
2024/01/19 00:01:22;;;;;;;22.02;11.05;;;;;;;;;;4941829;29;20035;-79
2024/01/19 00:03:52;;;;;;;30.55;11.50;;;;;;;;;;4943786;29;20122;-80
2024/01/19 00:06:19;;;;;;;;;;;;;;;;;;4943538;29;20126;-79
2024/01/19 00:08:51;;;;;;;25.87;10.67;;;;;;;;;;4958007;29;19934;-79
2024/01/19 00:11:18;;;;;;;26.50;10.93;;;;;;;;;;4950415;28;20525;-78
2024/01/19 00:13:49;;;;;;;26.30;11.33;;;;;;;;;;4946904;29;20086;-80
2024/01/19 00:16:19;;;;;;;28.17;11.87;;;;;;;;;;4957500;29;20493;-78
2024/01/19 00:18:51;;;;;;;29.10;11.40;;;;;;;;;;4924875;29;20093;-78
2024/01/19 00:21:18;;;;;;;27.90;11.97;;;;;;;;;;4957403;29;20039;-79
2024/01/19 00:23:44;;;;;;;27.40;11.77;;;;;;;;;;4942389;29;20023;-79
2024/01/19 00:26:12;;;;;;;27.03;12.17;;;;;;;;;;4939963;29;20047;-80
2024/01/19 00:28:44;;;;;;;28.67;11.77;;;;;;;;;;4939031;29;20042;-79
2024/01/19 00:31:11;;;;;;;32.37;12.90;;;;;;;;;;4921460;28;20134;-79
2024/01/19 00:33:39;;;;;;;30.25;12.65;;;;;;;;;;4922965;29;20027;-79
2024/01/19 00:36:06;;;;;;;33.17;12.90;;;;;;;;;;4939254;29;20431;-77
2024/01/19 00:38:31;;;;;;;30.53;12.57;;;;;;;;;;4954165;29;20111;-78
2024/01/19 00:41:00;;;;;;;33.23;12.63;;;;;;;;;;4955710;29;20046;-79
2024/01/19 00:43:27;;;;;;;25.30;11.73;;;;;;;;;;4949426;29;20094;-79
2024/01/19 00:45:53;;;;;;;31.50;12.57;;;;;;;;;;4960998;28;20035;-77
2024/01/19 00:48:29;;;;;;;25.80;11.27;;;;;;;;;;4955202;29;20042;-79
2024/01/19 00:50:57;;;;;;;29.27;12.67;;;;;;;;;;4938971;29;20034;-80
2024/01/19 00:53:23;;;;;;;;;;;;;;;;;;4924323;29;20044;-78
2024/01/19 00:55:49;;;;;;;26.40;11.57;;;;;;;;;;4939035;29;19922;-79
2024/01/19 00:58:16;;;;;;;25.00;11.00;;;;;;;;;;4939563;29;20415;-78
2024/01/19 01:00:42;;;;;;;30.27;12.63;;;;;;;;;;4926751;29;20031;-79
2024/01/19 01:03:09;;;;;;;27.10;11.77;;;;;;;;;;4966871;29;20122;-78
2024/01/19 01:05:40;;;;;;;32.13;12.93;;;;;;;;;;4935591;29;20039;-79
2024/01/19 01:08:08;;;;;;;26.07;11.63;;;;;;;;;;5566848;23;20070;-79
2024/01/19 01:10:43;;;;;;;27.83;13.13;;;;;;;;;;4964999;28;20042;-79
2024/01/19 01:13:14;;;;;;;28.90;12.20;;;;;;;;;;4972312;28;20216;-78
2024/01/19 01:15:45;;;;;;;24.27;11.40;;;;;;;;;;4924013;29;20027;-78
2024/01/19 01:18:11;;;;;;;29.63;11.40;;;;;;;;;;4953519;29;20037;-78
2024/01/19 01:20:41;;;;;;;26.80;11.90;;;;;;;;;;4917179;29;20035;-78
2024/01/19 01:23:09;;;;;;;29.27;11.53;;;;;;;;;;4933729;28;20031;-78
2024/01/19 01:25:35;;;;;;;28.80;12.43;;;;;;;;;;4931824;29;20074;-78
2024/01/19 01:28:03;;;;;;;21.93;10.90;;;;;;;;;;4926449;29;20035;-79
2024/01/19 01:30:29;;;;;;;26.53;12.30;;;;;;;;;;4925834;29;20042;-78
2024/01/19 01:33:06;;;;;;;26.23;11.17;;;;;;;;;;4955363;29;20038;-78
2024/01/19 01:35:32;;;;;;;28.60;10.60;;;;;;;;;;4921701;29;20039;-79
2024/01/19 01:38:03;;;;;;;25.93;12.30;;;;;;;;;;4945606;29;20023;-79
2024/01/19 01:40:33;;;;;;;23.77;10.97;;;;;;;;;;4931130;29;20099;-78
2024/01/19 01:43:02;;;;;;;28.10;11.97;;;;;;;;;;4926723;29;20032;-78
2024/01/19 01:45:33;;;;;;;29.60;11.70;;;;;;;;;;4913041;29;20519;-79
2024/01/19 01:48:01;;;;;;;25.73;11.40;;;;;;;;;;4930587;29;20031;-79
2024/01/19 01:50:37;;;;;;;22.73;10.63;;;;;;;;;;4947309;29;20204;-78
2024/01/19 01:53:06;;;;;;;25.93;12.33;;;;;;;;;;4947065;28;20055;-78
2024/01/19 01:55:35;;;;;;;30.80;13.30;;;;;;;;;;4931888;29;20027;-79
2024/01/19 01:58:01;;;;;;;24.30;11.47;;;;;;;;;;4946983;29;20410;-78
2024/01/19 02:00:29;;;;;;;28.87;11.90;;;;;;;;;;4944405;29;20078;-77
2024/01/19 02:02:57;;;;;;;;;;;;;;;;;;4916082;29;20031;-78
2024/01/19 02:05:24;;;;;;;26.43;11.23;;;;;;;;;;4929405;29;19911;-78
2024/01/19 02:08:02;;;;;;;24.23;10.43;;;;;;;;;;4947441;29;20086;-78
2024/01/19 02:10:28;;;;;;;24.03;10.87;;;;;;;;;;4949683;29;20394;-77
2024/01/19 02:12:57;;;;;;;24.05;10.00;;;;;;;;;;4931141;29;20071;-77
2024/01/19 02:15:25;;;;;;;35.73;12.40;;;;;;;;;;4918512;29;20046;-78
2024/01/19 02:17:52;;;;;;;24.02;8.60;;;;;;;;;;4934118;28;20067;-79
2024/01/19 02:20:22;;;;;;;30.42;11.07;;;;;;;;;;4949620;29;20031;-78
2024/01/19 02:22:56;;;;;;;29.40;12.50;;;;;;;;;;4958169;29;20027;-78
2024/01/19 02:25:32;;;;;;;26.33;10.97;;;;;;;;;;4953981;29;20050;-78
2024/01/19 02:28:03;;;;;;;26.37;12.20;;;;;;;;;;4960196;29;20089;-78
2024/01/19 02:30:34;;;;;;;30.03;12.10;;;;;;;;;;4937127;29;20054;-78
2024/01/19 02:33:01;;;;;;;30.90;11.00;;;;;;;;;;4939319;29;20027;-78
2024/01/19 02:35:37;;;;;;;26.53;10.10;;;;;;;;;;4930984;29;20030;-77
2024/01/19 02:38:07;;;;;;;31.30;11.63;;;;;;;;;;4924115;29;20023;-78
2024/01/19 02:41:32;;;;;;;27.10;12.00;;;;;;;;;;4959034;29;20058;-77
2024/01/19 02:45:11;;;;;;;30.40;12.93;;;;;;;;;;5475528;23;20058;-78
2024/01/19 02:47:37;;;;;;;28.93;11.33;;;;;;;;;;4955726;28;20046;-78
2024/01/19 02:50:05;;;;;;;28.07;12.17;;;;;;;;;;4947321;28;20074;-79
2024/01/19 02:52:43;;;;;;;22.80;11.40;;;;;;;;;;4952746;28;20035;-77
2024/01/19 02:55:12;;;;;;;28.83;13.13;;;;;;;;;;4967282;28;20106;-77
2024/01/19 02:57:40;;;;;;;24.15;11.60;;;;;;;;;;4965001;28;20027;-79
2024/01/19 03:00:08;;;;;;;24.07;11.33;;;;;;;;;;4951137;28;20031;-78
2024/01/19 03:02:37;;;;;;;36.73;12.43;;;;;;;;;;4950705;28;20098;-77
2024/01/19 03:05:04;;;;;;;27.50;11.57;;;;;;;;;;4950522;28;20070;-78
2024/01/19 03:07:31;;;;;;;34.17;13.30;;;;;;;;;;4978879;28;20027;-78
2024/01/19 03:10:01;;;;;;;29.30;12.57;;;;;;;;;;4982586;28;20095;-78
2024/01/19 03:12:54;;;;;;;27.63;11.87;;;;;;;;;;4920425;28;20122;-78
2024/01/19 03:15:24;;;;;;;28.67;11.60;;;;;;;;;;4962654;28;20034;-77
2024/01/19 03:17:57;;;;;;;32.37;10.63;;;;;;;;;;4969299;28;20034;-79
2024/01/19 03:20:58;;;;;;;21.77;11.00;;;;;;;;;;4966817;28;20058;-78
2024/01/19 03:23:26;;;;;;;26.30;12.10;;;;;;;;;;4979850;28;20099;-77
2024/01/19 03:25:53;;;;;;;25.10;11.53;;;;;;;;;;4965744;28;20027;-78
2024/01/19 03:28:19;;;;;;;23.73;10.87;;;;;;;;;;4948641;28;20081;-77
2024/01/19 03:30:49;;;;;;;32.37;12.00;;;;;;;;;;4964636;28;20031;-79
2024/01/19 03:33:16;;;;;;;23.25;10.18;;;;;;;;;;4951230;28;20031;-77
2024/01/19 03:35:48;;;;;;;31.07;10.87;;;;;;;;;;4948099;28;20058;-78
2024/01/19 03:38:18;;;;;;;26.17;12.20;;;;;;;;;;4950725;28;20081;-78
2024/01/19 03:40:49;;;;;;;25.63;11.10;;;;;;;;;;4947605;28;20117;-78
2024/01/19 03:43:18;;;;;;;20.27;9.53;;;;;;;;;;4933868;29;20522;-79
2024/01/19 03:45:46;;;;;;;34.13;11.80;;;;;;;;;;4938441;28;20537;-78
2024/01/19 03:48:19;;;;;;;33.70;12.57;;;;;;;;;;4955825;29;20043;-79
2024/01/19 03:50:50;;;;;;;28.40;11.50;;;;;;;;;;4954343;28;20031;-78
2024/01/19 03:57:48;;;;;;;24.00;10.90;;;;;;;;;;4928908;28;20090;-78
2024/01/19 04:05:03;;;;;;;24.73;10.77;;;;;;;;;;5417489;23;20057;-79
2024/01/19 04:07:29;;;;;;;27.80;11.77;;;;;;;;;;4972790;28;20034;-79
2024/01/19 04:09:57;;;;;;;27.37;12.93;;;;;;;;;;4963744;28;20094;-78
2024/01/19 04:12:27;;;;;;;26.33;11.80;;;;;;;;;;4958869;29;20035;-78
2024/01/19 04:14:58;;;;;;;28.00;11.77;;;;;;;;;;4946524;29;20068;-79
2024/01/19 04:17:27;;;;;;;24.87;10.70;;;;;;;;;;4940378;29;20045;-78
2024/01/19 04:19:54;;;;;;;31.20;13.60;;;;;;;;;;4947323;29;20079;-79
2024/01/19 04:22:20;;;;;;;30.77;12.17;;;;;;;;;;4928640;29;20070;-78
2024/01/19 04:24:47;;;;;;;24.23;12.27;;;;;;;;;;4943464;29;20031;-77
2024/01/19 04:27:28;;;;;;;26.67;11.03;;;;;;;;;;4915780;29;20039;-79
2024/01/19 04:29:59;;;;;;;24.97;12.33;;;;;;;;;;4965444;29;20038;-78
2024/01/19 04:32:28;;;;;;;28.88;12.85;;;;;;;;;;4928881;29;20035;-78
2024/01/19 04:34:57;;;;;;;31.60;13.90;;;;;;;;;;4927949;28;20047;-78
2024/01/19 04:37:24;;;;;;;25.03;11.93;;;;;;;;;;4939493;29;20498;-78
2024/01/19 04:39:50;;;;;;;34.87;12.10;;;;;;;;;;4911206;29;20028;-78
2024/01/19 04:42:16;;;;;;;28.97;13.10;;;;;;;;;;4937953;29;20035;-78
2024/01/19 04:44:43;;;;;;;31.20;13.67;;;;;;;;;;4907217;29;20100;-77
2024/01/19 04:47:09;;;;;;;27.70;13.03;;;;;;;;;;4946674;29;20098;-78
2024/01/19 04:49:35;;;;;;;26.17;11.93;;;;;;;;;;4925719;29;20062;-78
2024/01/19 04:52:03;;;;;;;23.33;11.80;;;;;;;;;;4944140;29;20032;-78
2024/01/19 04:54:30;;;;;;;28.67;13.53;;;;;;;;;;4931302;29;20028;-78
2024/01/19 04:56:58;;;;;;;29.37;12.00;;;;;;;;;;4953499;29;20509;-78
2024/01/19 04:59:24;;;;;;;31.07;13.43;;;;;;;;;;4948156;29;20534;-78
2024/01/19 05:01:55;;;;;;;28.50;10.67;;;;;;;;;;4946053;29;20035;-78
2024/01/19 05:04:22;;;;;;;21.53;11.47;;;;;;;;;;4924286;29;20058;-78
2024/01/19 05:06:54;;;;;;;21.97;10.20;;;;;;;;;;4925499;29;20461;-78
2024/01/19 05:09:20;;;;;;;29.87;12.73;;;;;;;;;;4947415;29;20051;-78
2024/01/19 05:11:48;;;;;;;31.70;12.63;;;;;;;;;;4947032;29;20050;-79
2024/01/19 05:14:17;;;;;;;27.95;12.15;;;;;;;;;;4910644;29;20053;-78
2024/01/19 05:16:48;;;;;;;29.87;13.87;;;;;;;;;;4934452;29;20038;-78
2024/01/19 05:19:20;;;;;;;39.00;12.23;;;;;;;;;;4929413;29;20491;-78
2024/01/19 05:21:47;;;;;;;30.63;12.13;;;;;;;;;;4929687;29;20042;-78
2024/01/19 05:24:14;;;;;;;34.35;12.38;;;;;;;;;;4928324;29;20089;-78
2024/01/19 05:26:43;;;;;;;24.30;9.50;;;;;;;;;;4931848;29;20043;-79
2024/01/19 05:29:13;;;;;;;29.30;12.27;;;;;;;;;;4944476;29;20046;-78
2024/01/19 05:31:41;;;;;;;34.80;12.80;;;;;;;;;;4947698;29;20031;-79
2024/01/19 05:34:10;;;;;;;27.33;12.13;;;;;;;;;;4949560;29;20475;-78
2024/01/19 05:36:40;;;;;;;27.65;11.80;;;;;;;;;;4941698;29;20047;-78
2024/01/19 05:39:12;;;;;;;34.43;12.67;;;;;;;;;;4947802;29;20035;-79
2024/01/19 05:41:42;;;;;;;30.97;12.93;;;;;;;;;;4947817;29;20122;-79
2024/01/19 05:44:09;;;;;;;26.97;12.23;;;;;;;;;;4947362;29;20070;-79
2024/01/19 05:46:35;;;;;;;25.10;11.50;;;;;;;;;;4931121;29;20129;-78
2024/01/19 05:49:11;;;;;;;33.07;13.77;;;;;;;;;;4916502;29;20050;-79
2024/01/19 05:51:42;;;;;;;27.13;11.70;;;;;;;;;;4930045;29;20032;-78
2024/01/19 05:54:25;;;;;;;30.23;11.60;;;;;;;;;;4931865;29;20042;-79
2024/01/19 05:56:52;;;;;;;28.20;11.50;;;;;;;;;;4950165;29;20039;-79
2024/01/19 05:59:23;;;;;;;24.17;11.07;;;;;;;;;;4945670;29;20035;-79
2024/01/19 06:01:55;;;;;;;28.17;11.47;;;;;;;;;;4943789;29;20073;-78
2024/01/19 06:04:21;;;;;;;25.43;11.10;;;;;;;;;;4944939;29;20039;-78
2024/01/19 06:06:52;;;;;;;23.10;10.20;;;;;;;;;;4928292;28;20031;-78
2024/01/19 06:09:29;;;;;;;32.17;10.60;;;;;;;;;;4946231;29;20028;-79
2024/01/19 06:12:13;;;;;;;26.10;11.50;;;;;;;;;;4964049;29;20058;-79
2024/01/19 06:37:21;;;;;;;27.45;9.68;;;;;;;;;;4901588;29;20475;-79
2024/01/19 06:39:58;;;;;;;23.53;10.37;;;;;;;;;;4865973;29;20039;-80
2024/01/19 06:42:31;;;;;;;21.97;10.33;;;;;;;;;;4912779;29;20036;-77
2024/01/19 06:44:57;;;;;;;22.27;10.13;;;;;;;;;;4880705;29;20104;-79
2024/01/19 06:51:59;;;;;;;20.60;8.30;;;;;;;;;;4883457;29;20120;-79
2024/01/19 06:58:20;;;;;;;20.50;8.83;;;;;;;;;;5860704;23;20162;-78
2024/01/19 07:00:53;;;;;;;19.20;9.77;;;;;;;;;;4945454;28;20054;-77
2024/01/19 07:03:21;;;;;;;20.88;9.80;;;;;;;;;;4942230;28;20037;-79
2024/01/19 07:05:51;;;;;;;22.10;8.73;;;;;;;;;;4924706;29;20031;-79
2024/01/19 07:08:17;;;;;;;21.00;8.57;;;;;;;;;;4973488;23;20129;-82
2024/01/19 07:10:43;;;;;;;19.53;8.57;;;;;;;;;;4943132;28;20035;-82
2024/01/19 07:13:09;;;;;;;20.87;9.03;;;;;;;;;;4934430;28;20027;-80
2024/01/19 07:15:34;;;;;;;16.87;7.37;;;;;;;;;;4942616;28;20118;-81
2024/01/19 07:18:00;;;;;;;21.10;8.80;;;;;;;;;;4925624;28;20035;-82
2024/01/19 07:20:27;;;;;;;19.83;8.97;;;;;;;;;;4977842;28;20050;-81
2024/01/19 07:22:55;;;;;;;19.30;8.87;;;;;;;;;;4961180;28;20026;-81
2024/01/19 07:25:21;;;;;;;20.07;8.90;;;;;;;;;;4943705;28;20034;-82
2024/01/19 07:27:51;;;;;;;19.23;8.37;;;;;;;;;;4929020;28;20401;-81
2024/01/19 07:30:18;;;;;;;19.37;7.80;;;;;;;;;;4944281;28;20038;-81
2024/01/19 07:32:43;;;;;;;18.93;7.77;;;;;;;;;;4943739;28;20041;-81
2024/01/19 07:35:10;;;;;;;18.07;6.93;;;;;;;;;;4928571;28;20097;-82
2024/01/19 07:37:36;;;;;;;16.57;8.10;;;;;;;;;;4942710;28;20489;-83
2024/01/19 07:40:01;;;;;;;19.70;8.17;;;;;;;;;;4926998;29;20035;-83
2024/01/19 07:42:29;;;;;;;21.60;7.83;;;;;;;;;;4920719;28;20491;-82
2024/01/19 07:44:55;;;;;;;17.03;7.37;;;;;;;;;;4944242;28;20038;-82
2024/01/19 07:47:20;;;;;;;16.77;7.80;;;;;;;;;;4956892;28;20035;-82
2024/01/19 07:49:48;;;;;;;17.23;8.10;;;;;;;;;;4936600;28;20110;-82
2024/01/19 07:52:17;;;;;;;13.83;5.80;;;;;;;;;;4956384;28;20065;-82
2024/01/19 07:54:43;;;;;;;12.37;5.83;;;;;;;;;;4955225;29;20562;-83
2024/01/19 07:57:09;;;;;;;20.10;6.60;;;;;;;;;;4965502;28;20240;-83
2024/01/19 07:59:36;;;;;;;14.53;6.33;;;;;;;;;;4961884;28;20035;-83
2024/01/19 08:02:08;;;;;;;15.27;7.40;;;;;;;;;;4957763;28;20035;-82
2024/01/19 08:04:38;;;;;;;14.57;5.47;;;;;;;;;;4950432;28;20050;-81
2024/01/19 08:07:07;;;;;;;16.30;6.80;;;;;;;;;;4982246;28;20011;-82
2024/01/19 08:09:32;;;;;;;14.07;6.55;;;;;;;;;;4981838;28;20023;-82
2024/01/19 08:12:01;;;;;;;16.43;5.90;;;;;;;;;;4965844;28;20058;-82
2024/01/19 08:14:33;;;;;;;13.53;6.47;;;;;;;;;;4966879;28;20026;-82
2024/01/19 08:16:59;;;;;;;15.53;6.00;;;;;;;;;;4985330;28;20023;-82
2024/01/19 08:19:24;;;;;;;15.70;6.53;;;;;;;;;;4987535;28;20511;-81
2024/01/19 08:21:51;;;;;;;18.23;6.13;;;;;;;;;;4949310;28;20099;-82
2024/01/19 08:24:17;;;;;;;13.30;5.50;;;;;;;;;;4949777;28;20054;-81
2024/01/19 08:26:43;;;;;;;12.20;6.00;;;;;;;;;;4968679;28;20474;-82
2024/01/19 08:29:08;;;;;;;17.30;6.27;;;;;;;;;;4920430;29;20027;-82
2024/01/19 08:31:36;;;;;;;15.07;6.27;;;;;;;;;;4945830;29;20051;-82
2024/01/19 08:34:05;;;;;;;11.23;5.27;;;;;;;;;;4989901;28;20101;-82
2024/01/19 08:36:31;;;;;;;14.20;6.40;;;;;;;;;;4983951;28;20565;-81
2024/01/19 08:38:57;;;;;;;18.47;5.97;;;;;;;;;;4985473;28;20050;-82
2024/01/19 08:41:24;;;;;;;11.43;4.93;;;;;;;;;;4933676;28;20035;-82
2024/01/19 08:43:52;;;;;;;12.65;5.45;;;;;;;;;;4965413;28;20038;-80
2024/01/19 08:46:18;;;;;;;12.43;5.23;;;;;;;;;;4948608;28;20114;-82
2024/01/19 08:48:45;;;;;;;18.40;5.67;;;;;;;;;;4932900;28;20098;-82
2024/01/19 08:51:20;;;;;;;16.10;6.10;;;;;;;;;;4946400;29;20043;-82
2024/01/19 08:53:46;;;;;;;18.50;5.63;;;;;;;;;;4946271;29;20054;-81
2024/01/19 08:56:17;;;;;;;11.23;5.53;;;;;;;;;;4930911;29;20499;-82
2024/01/19 08:58:43;;;;;;;13.60;4.87;;;;;;;;;;4929853;29;20031;-81
2024/01/19 09:01:15;;;;;;;14.77;6.13;;;;;;;;;;4949759;29;20039;-81
2024/01/19 09:03:42;;;;;;;10.23;4.47;;;;;;;;;;4917438;29;20039;-82
2024/01/19 09:06:08;;;;;;;11.67;5.43;;;;;;;;;;4966750;28;20491;-81
2024/01/19 09:08:34;;;;;;;12.17;5.20;;;;;;;;;;4949480;28;20034;-81
2024/01/19 09:11:35;;;;;;;17.40;5.90;;;;;;;;;;4949395;28;20035;-81
2024/01/19 09:14:02;;;;;;;14.03;5.60;;;;;;;;;;4963885;28;20039;-82
2024/01/19 09:16:29;;;;;;;11.60;4.05;;;;;;;;;;4938173;28;20570;-82
2024/01/19 09:18:56;;;;;;;14.23;5.70;;;;;;;;;;4950588;28;20042;-82
2024/01/19 09:21:23;;;;;;;12.75;5.55;;;;;;;;;;4948854;28;20071;-82
2024/01/19 09:23:53;;;;;;;;;;;;;;;;;;4933582;28;20034;-80
2024/01/19 09:26:28;;;;;;;13.93;5.63;;;;;;;;;;4933126;28;19910;-82
2024/01/19 09:28:55;;;;;;;9.27;4.07;;;;;;;;;;4961826;28;20101;-82
2024/01/19 09:31:22;;;;;;;16.50;5.57;;;;;;;;;;4944540;28;20042;-81
2024/01/19 09:33:48;;;;;;;14.13;5.80;;;;;;;;;;4946506;28;20505;-81
2024/01/19 09:36:15;;;;;;;14.67;6.60;;;;;;;;;;4930300;28;20031;-82
2024/01/19 09:38:40;;;;;;;14.33;6.40;;;;;;;;;;4945719;28;20036;-80
2024/01/19 09:41:09;;;;;;;14.57;6.43;;;;;;;;;;4934880;28;20038;-82
2024/01/19 09:43:35;;;;;;;15.63;7.13;;;;;;;;;;4962656;28;20054;-82
2024/01/19 09:46:05;;;;;;;16.50;7.23;;;;;;;;;;4944494;28;20394;-81
2024/01/19 09:48:36;;;;;;;16.67;6.55;;;;;;;;;;4945517;28;20074;-82
2024/01/19 09:51:02;;;;;;;15.90;6.67;;;;;;;;;;4963664;28;20082;-81
2024/01/19 09:53:35;;;;;;;14.00;6.30;;;;;;;;;;4947513;28;20031;-82
2024/01/19 09:56:04;;;;;;;11.97;6.17;;;;;;;;;;4961619;28;20038;-81
2024/01/19 09:58:31;;;;;;;15.97;7.47;;;;;;;;;;4944561;28;20035;-82
2024/01/19 10:00:58;;;;;;;17.03;7.17;;;;;;;;;;4946926;28;20042;-81
2024/01/19 10:03:27;;;;;;;20.00;7.57;;;;;;;;;;4945315;28;20039;-82
2024/01/19 10:05:55;;;;;;;15.73;6.87;;;;;;;;;;4961869;29;20123;-81
2024/01/19 10:08:21;;;;;;;15.60;6.60;;;;;;;;;;4957081;29;20046;-82
2024/01/19 10:10:50;;;;;;;14.33;6.77;;;;;;;;;;4942845;29;20047;-82
2024/01/19 10:13:23;;;;;;;12.73;5.60;;;;;;;;;;4920590;29;20039;-82
2024/01/19 10:15:52;;;;;;;17.77;7.37;;;;;;;;;;4926131;29;20031;-82
2024/01/19 10:18:18;;;;;;;17.47;7.43;;;;;;;;;;4927504;29;20057;-82
2024/01/19 10:20:51;;;;;;;18.90;6.20;;;;;;;;;;4929699;29;20031;-82
2024/01/19 10:23:19;;;;;;;13.80;6.50;;;;;;;;;;4925810;29;20498;-82
2024/01/19 10:25:45;;;;;;;12.43;5.73;;;;;;;;;;4940034;29;20075;-82
2024/01/19 10:28:30;;;;;;;18.63;6.83;;;;;;;;;;4957782;29;20042;-82
2024/01/19 10:31:15;;;;;;;17.47;6.43;;;;;;;;;;4927623;29;20046;-82
2024/01/19 10:33:57;;;;;;;14.33;6.00;;;;;;;;;;4950014;28;20059;-82
2024/01/19 10:36:26;;;;;;;15.67;7.07;;;;;;;;;;4957848;28;20035;-82
2024/01/19 10:38:52;;;;;;;19.95;6.97;;;;;;;;;;4945415;28;20391;-82
2024/01/19 10:41:27;;;;;;;15.67;5.93;;;;;;;;;;4960386;28;20043;-82
2024/01/19 10:44:19;;;;;;;16.50;6.60;;;;;;;;;;4932957;28;20053;-82
2024/01/19 10:46:46;;;;;;;15.73;6.40;;;;;;;;;;4948132;28;20109;-83
2024/01/19 10:49:16;;;;;;;16.27;6.83;;;;;;;;;;4933244;28;20038;-82
2024/01/19 10:51:44;;;;;;;17.70;7.83;;;;;;;;;;4936193;28;20031;-82
2024/01/19 10:54:15;;;;;;;18.23;7.07;;;;;;;;;;4934770;28;20138;-82
2024/01/19 10:56:45;;;;;;;17.83;7.73;;;;;;;;;;4965152;28;20027;-81
2024/01/19 10:59:10;;;;;;;;;;;;;;;;;;4977223;28;20023;-81
2024/01/19 11:01:36;;;;;;;20.03;6.87;;;;;;;;;;4948682;28;19921;-82
2024/01/19 11:04:02;;;;;;;14.80;7.07;;;;;;;;;;4948626;28;20055;-82
2024/01/19 11:06:28;;;;;;;18.37;7.77;;;;;;;;;;4950459;28;20058;-81
2024/01/19 11:08:56;;;;;;;16.08;7.10;;;;;;;;;;4952799;28;20034;-81
2024/01/19 11:11:23;;;;;;;18.77;8.03;;;;;;;;;;4959545;28;20039;-80
2024/01/19 11:13:50;;;;;;;17.70;7.60;;;;;;;;;;4970517;28;20050;-80
2024/01/19 11:16:20;;;;;;;19.13;7.77;;;;;;;;;;4932873;28;20031;-82
2024/01/19 11:18:46;;;;;;;15.70;7.80;;;;;;;;;;4944728;28;20114;-82
2024/01/19 11:21:13;;;;;;;18.77;8.18;;;;;;;;;;4942858;28;20130;-81
2024/01/19 11:23:40;;;;;;;30.93;8.43;;;;;;;;;;4940739;28;20042;-82
2024/01/19 11:26:25;;;;;;;22.23;7.90;;;;;;;;;;4953227;28;20038;-82
2024/01/19 11:28:58;;;;;;;17.43;8.30;;;;;;;;;;4975069;28;20037;-82
2024/01/19 11:31:29;;;;;;;21.50;7.03;;;;;;;;;;4956936;28;20045;-80
2024/01/19 11:33:54;;;;;;;18.37;7.67;;;;;;;;;;4974081;28;20511;-82
2024/01/19 11:36:38;;;;;;;21.10;7.43;;;;;;;;;;4956723;28;20035;-82
2024/01/19 11:39:05;;;;;;;14.60;7.40;;;;;;;;;;4954840;28;20032;-82
2024/01/19 11:41:33;;;;;;;19.30;8.50;;;;;;;;;;4972883;28;20034;-81
2024/01/19 11:44:05;;;;;;;21.33;8.32;;;;;;;;;;4957477;28;20090;-83
2024/01/19 11:46:44;;;;;;;17.90;7.43;;;;;;;;;;4958545;28;20035;-80
2024/01/19 11:49:34;;;;;;;19.17;7.73;;;;;;;;;;4932970;28;20038;-82
2024/01/19 11:52:01;;;;;;;17.50;6.60;;;;;;;;;;4945397;28;20502;-82
2024/01/19 11:54:32;;;;;;;18.03;7.87;;;;;;;;;;4944145;28;20034;-82
2024/01/19 11:57:17;;;;;;;21.87;8.10;;;;;;;;;;4956309;28;20117;-82
2024/01/19 11:59:46;;;;;;;21.40;9.10;;;;;;;;;;4958659;28;20034;-82
2024/01/19 12:02:27;;;;;;;20.17;8.77;;;;;;;;;;4958848;28;20038;-82
2024/01/19 12:05:07;;;;;;;24.77;9.38;;;;;;;;;;4965021;28;20089;-82
2024/01/19 12:07:35;;;;;;;20.93;9.73;;;;;;;;;;4955197;28;20039;-83
2024/01/19 12:10:29;;;;;;;20.90;9.33;;;;;;;;;;4942882;28;20037;-82
2024/01/19 12:12:55;;;;;;;25.80;8.90;;;;;;;;;;4950433;28;20049;-82
2024/01/19 12:15:22;;;;;;;22.07;9.33;;;;;;;;;;4938279;28;20071;-82
2024/01/19 12:17:51;;;;;;;16.27;8.47;;;;;;;;;;4939839;28;20089;-83
2024/01/19 12:20:41;;;;;;;19.63;8.33;;;;;;;;;;4937568;29;20027;-82
2024/01/19 12:23:08;;;;;;;19.50;8.40;;;;;;;;;;4940871;29;20110;-82
2024/01/19 12:25:35;;;;;;;21.10;8.57;;;;;;;;;;4943497;28;20027;-82
2024/01/19 12:28:03;;;;;;;24.33;8.87;;;;;;;;;;4962601;28;20023;-82
2024/01/19 12:30:30;;;;;;;20.97;9.70;;;;;;;;;;4959536;28;20027;-82
2024/01/19 12:33:18;;;;;;;24.90;10.30;;;;;;;;;;4941487;28;20070;-82
2024/01/19 12:35:47;;;;;;;27.15;10.20;;;;;;;;;;4927205;29;20091;-83
2024/01/19 12:38:36;;;;;;;21.80;9.27;;;;;;;;;;4915274;28;20034;-82
2024/01/19 12:41:05;;;;;;;17.38;8.20;;;;;;;;;;4957259;28;20101;-82
2024/01/19 12:43:31;;;;;;;21.90;8.70;;;;;;;;;;4954774;28;20043;-82
2024/01/19 12:46:08;;;;;;;23.03;9.37;;;;;;;;;;4977388;28;20035;-82
2024/01/19 12:48:36;;;;;;;27.57;9.67;;;;;;;;;;4921937;28;20034;-80
2024/01/19 12:51:04;;;;;;;27.23;9.23;;;;;;;;;;4924410;28;20597;-82
2024/01/19 12:53:32;;;;;;;21.43;8.53;;;;;;;;;;4956477;28;20494;-81
2024/01/19 12:55:59;;;;;;;22.17;9.50;;;;;;;;;;4944764;29;20026;-82
2024/01/19 12:58:25;;;;;;;19.77;9.52;;;;;;;;;;4943825;28;20041;-80
2024/01/19 13:01:04;;;;;;;20.80;8.55;;;;;;;;;;4939783;28;20065;-81
2024/01/19 13:03:29;;;;;;;20.73;8.30;;;;;;;;;;4942883;28;20043;-82
2024/01/19 13:05:59;;;;;;;21.48;8.70;;;;;;;;;;4945275;28;20038;-81
2024/01/19 13:14:03;;;;;;;20.10;9.30;;;;;;;;;;5329531;23;20059;-80
2024/01/19 13:16:30;;;;;;;20.90;8.10;;;;;;;;;;4937117;28;20102;-80
2024/01/19 13:19:07;;;;;;;23.90;9.13;;;;;;;;;;4930352;28;20049;-79
2024/01/19 13:21:37;;;;;;;19.48;8.68;;;;;;;;;;4958123;28;20044;-79
2024/01/19 13:24:02;;;;;;;18.17;8.15;;;;;;;;;;4951268;28;20033;-80
2024/01/19 13:26:32;;;;;;;17.67;8.23;;;;;;;;;;4945185;28;20031;-80
2024/01/19 13:29:01;;;;;;;19.25;8.23;;;;;;;;;;4920028;28;20030;-79
2024/01/19 13:31:29;;;;;;;23.77;8.23;;;;;;;;;;4960059;28;20046;-80
2024/01/19 13:33:54;;;;;;;18.67;8.63;;;;;;;;;;4968774;28;20850;-79
2024/01/19 13:36:21;;;;;;;16.33;7.75;;;;;;;;;;4996262;28;20053;-78
2024/01/19 13:38:50;;;;;;;20.25;8.10;;;;;;;;;;4951210;28;20034;-78
2024/01/19 13:41:18;;;;;;;20.35;9.05;;;;;;;;;;4987561;28;20042;-78
2024/01/19 13:43:44;;;;;;;20.67;8.60;;;;;;;;;;5006383;28;20094;-81
2024/01/19 13:46:14;;;;;;;16.52;8.02;;;;;;;;;;5014871;28;20030;-79
2024/01/19 13:48:51;;;;;;;18.52;8.13;;;;;;;;;;4985338;28;20030;-79
2024/01/19 13:51:38;;;;;;;15.70;7.45;;;;;;;;;;4979886;28;20043;-80
2024/01/19 13:54:05;;;;;;;24.63;8.98;;;;;;;;;;4978135;28;20055;-78
2024/01/19 13:56:31;;;;;;;19.17;8.50;;;;;;;;;;4980844;28;20051;-79
2024/01/19 13:58:58;;;;;;;18.35;8.10;;;;;;;;;;4949440;29;20034;-80
2024/01/19 14:01:27;;;;;;;16.73;7.35;;;;;;;;;;4982341;28;20079;-80
2024/01/19 14:04:00;;;;;;;17.45;7.65;;;;;;;;;;4950546;29;20026;-79
2024/01/19 14:06:26;;;;;;;18.00;7.90;;;;;;;;;;4947726;29;20039;-80
2024/01/19 14:08:54;;;;;;;21.38;7.60;;;;;;;;;;4953537;29;20035;-80
2024/01/19 14:11:23;;;;;;;19.35;7.82;;;;;;;;;;4932336;29;20475;-79
2024/01/19 14:13:57;;;;;;;15.88;7.53;;;;;;;;;;4924661;29;20058;-78
2024/01/19 14:16:23;;;;;;;17.48;7.38;;;;;;;;;;4894880;29;20047;-79
2024/01/19 14:18:53;;;;;;;20.70;7.63;;;;;;;;;;4926052;29;20082;-79
2024/01/19 14:21:25;;;;;;;14.88;7.40;;;;;;;;;;4926600;29;20074;-79
2024/01/19 14:23:52;;;;;;;18.00;7.35;;;;;;;;;;4944138;28;20347;-81
2024/01/19 14:26:27;;;;;;;19.70;7.75;;;;;;;;;;4932874;28;20570;-80
2024/01/19 14:28:53;;;;;;;16.45;6.65;;;;;;;;;;4945609;28;20045;-80
2024/01/19 14:31:21;;;;;;;17.77;7.47;;;;;;;;;;4960909;28;20466;-80
2024/01/19 14:34:32;;;;;;;18.13;7.20;;;;;;;;;;4974945;23;20073;-80
2024/01/19 14:42:11;;;;;;;17.88;7.20;;;;;;;;;;4960824;28;20042;-80
2024/01/19 14:48:11;;;;;;;22.90;10.40;;;;;;;;;;5180731;23;20138;-81
2024/01/19 14:50:39;;;;;;;25.08;9.45;;;;;;;;;;4930553;28;20039;-81
2024/01/19 14:53:05;;;;;;;23.42;7.25;;;;;;;;;;4947312;28;20045;-79
2024/01/19 14:55:42;;;;;;;26.50;7.85;;;;;;;;;;4944830;29;20053;-80
2024/01/19 14:58:08;;;;;;;14.60;6.80;;;;;;;;;;4926022;29;20031;-80
2024/01/19 15:00:37;;;;;;;18.23;6.32;;;;;;;;;;4961568;29;20478;-81
2024/01/19 15:03:10;;;;;;;19.63;7.33;;;;;;;;;;4929213;28;20054;-81
2024/01/19 15:05:38;;;;;;;16.73;7.82;;;;;;;;;;4944391;29;20046;-80
2024/01/19 15:08:09;;;;;;;16.07;7.27;;;;;;;;;;4942583;29;20112;-81
2024/01/19 15:10:36;;;;;;;16.75;6.18;;;;;;;;;;4916590;29;20503;-80
2024/01/19 15:13:03;;;;;;;14.60;6.07;;;;;;;;;;4932317;29;20032;-81
2024/01/19 15:15:28;;;;;;;22.93;6.63;;;;;;;;;;4949599;29;20020;-78
2024/01/19 15:17:59;;;;;;;15.37;6.00;;;;;;;;;;4932314;29;20041;-80
2024/01/19 15:20:41;;;;;;;14.27;5.83;;;;;;;;;;4931482;29;20468;-79
2024/01/19 15:23:12;;;;;;;16.00;6.17;;;;;;;;;;4910745;29;20036;-81
2024/01/19 15:25:50;;;;;;;21.67;6.53;;;;;;;;;;4910195;29;20074;-80
2024/01/19 15:28:17;;;;;;;24.33;6.93;;;;;;;;;;4945011;29;20059;-81
2024/01/19 15:30:46;;;;;;;15.47;6.40;;;;;;;;;;4934675;29;20039;-80
2024/01/19 15:33:11;;;;;;;17.42;6.32;;;;;;;;;;4939850;28;20039;-80
2024/01/19 15:35:37;;;;;;;16.40;5.50;;;;;;;;;;4950686;29;20031;-80
2024/01/19 15:38:04;;;;;;;18.70;6.60;;;;;;;;;;4916295;29;20047;-80